Time;durP1;ratioP1;P1;durP2;ratioP2;P2;SDS_P1;SDS_P2;PMS_P1;PMS_P2;Temp;Humidity;BMP_temperature;BMP_pressure;BME280_temperature;BME280_humidity;BME280_pressure;Samples;Min_cycle;Max_cycle;Signal;HPM_P1;HPM_P2
2023/06/04 00:00:42;;;;;;;2.90;2.40;;;13.10;58.70;;;13.00;43.83;101538.53;5075992;28;20661;-71
2023/06/04 00:03:14;;;;;;;3.37;2.33;;;13.10;59.00;;;12.97;44.10;101526.25;5076087;28;20232;-71
2023/06/04 00:05:46;;;;;;;3.13;2.47;;;13.10;58.90;;;12.97;44.64;101533.47;5075893;28;20623;-71
2023/06/04 00:08:18;;;;;;;3.67;2.17;;;13.10;59.30;;;12.85;45.02;101534.72;5076216;28;20272;-71
2023/06/04 00:10:50;;;;;;;3.43;2.20;;;13.10;59.30;;;12.73;45.37;101530.59;5076153;28;20618;-71
2023/06/04 00:13:23;;;;;;;2.90;2.20;;;12.90;60.60;;;12.74;45.19;101524.22;5076178;28;20229;-71
2023/06/04 00:15:55;;;;;;;2.70;2.20;;;12.90;60.40;;;12.76;45.48;101530.28;5075894;28;20306;-71
2023/06/04 00:18:27;;;;;;;3.27;2.17;;;12.80;60.30;;;12.73;45.40;101519.84;5076823;28;20535;-71
2023/06/04 00:20:59;;;;;;;4.13;2.23;;;12.90;60.40;;;12.66;45.83;101531.22;5076008;28;20197;-71
2023/06/04 00:23:31;;;;;;;2.73;2.03;;;12.80;60.80;;;12.60;45.60;101528.31;5075822;28;20328;-71
2023/06/04 00:26:04;;;;;;;2.40;2.03;;;12.70;61.40;;;12.44;46.67;101531.66;5075909;28;20605;-71
2023/06/04 00:28:37;;;;;;;3.87;2.20;;;12.50;61.90;;;12.49;46.00;101524.00;5075825;28;20196;-71
2023/06/04 00:31:12;;;;;;;2.93;1.87;;;12.70;61.80;;;12.60;46.60;101531.00;5075862;28;20340;-71
2023/06/04 00:33:44;;;;;;;3.80;1.90;;;12.80;61.20;;;12.54;46.99;101528.91;5075789;28;20193;-71
2023/06/04 00:36:16;;;;;;;5.17;2.00;;;12.70;62.20;;;12.48;46.78;101533.06;5075448;28;20630;-71
2023/06/04 00:38:48;;;;;;;3.07;2.07;;;12.60;62.00;;;12.23;47.55;101533.78;5075740;28;20268;-71
2023/06/04 00:41:20;;;;;;;3.13;2.13;;;12.50;62.60;;;12.24;47.22;101527.44;5075246;28;20721;-71
2023/06/04 00:43:56;;;;;;;2.93;2.63;;;12.50;62.70;;;12.19;47.05;101529.75;5074772;28;20308;-71
2023/06/04 00:46:31;;;;;;;5.63;2.77;;;12.40;62.80;;;12.08;47.72;101528.13;5075262;28;20240;-71
2023/06/04 00:49:03;;;;;;;3.23;2.23;;;12.30;63.20;;;12.02;48.10;101531.38;5075707;28;20193;-71
2023/06/04 00:51:36;;;;;;;3.63;2.20;;;12.30;63.60;;;12.19;47.34;101527.06;5075673;28;20275;-71
2023/06/04 00:54:10;;;;;;;2.60;2.10;;;12.40;63.90;;;12.03;48.38;101530.38;5075394;28;20272;-71
2023/06/04 00:56:41;;;;;;;2.17;1.97;;;12.20;64.00;;;12.01;48.52;101534.22;5075450;28;20232;-71
2023/06/04 00:59:15;;;;;;;5.53;2.60;;;12.20;64.70;;;11.88;48.97;101520.31;5075371;28;20224;-71
2023/06/04 01:01:56;;;;;;;3.77;2.10;;;12.00;64.90;;;11.87;48.55;101526.69;5074911;28;20614;-71
2023/06/04 01:04:35;;;;;;;2.90;2.07;;;12.30;65.00;;;11.69;49.73;101535.50;5075196;28;20209;-71
2023/06/04 01:07:13;;;;;;;2.93;2.10;;;11.90;66.00;;;11.70;49.33;101528.28;5075446;28;20190;-71
2023/06/04 01:09:47;;;;;;;3.43;2.20;;;11.80;66.40;;;11.81;49.08;101535.34;5075608;28;20194;-71
2023/06/04 01:12:19;;;;;;;4.43;2.40;;;12.10;65.70;;;11.75;48.96;101535.94;5075098;28;20260;-71
2023/06/04 01:14:53;;;;;;;2.60;1.90;;;12.00;65.90;;;11.55;49.76;101532.44;5074950;28;20206;-71
2023/06/04 01:17:37;;;;;;;5.37;2.30;;;11.70;66.20;;;11.56;49.28;101534.97;5074649;28;20415;-71
2023/06/04 01:20:21;;;;;;;3.17;2.10;;;11.80;66.30;;;11.58;49.64;101529.47;5075277;28;20197;-73
2023/06/04 01:23:14;;;;;;;1.90;1.80;;;11.70;67.00;;;11.43;50.37;101523.75;5074911;28;20315;-73
2023/06/04 01:25:49;;;;;;;3.43;2.20;;;11.70;66.70;;;11.47;49.73;101518.94;5074757;28;20236;-73
2023/06/04 01:28:22;;;;;;;2.53;2.13;;;11.60;67.40;;;11.34;50.68;101513.03;5074758;28;20271;-73
2023/06/04 01:30:56;;;;;;;2.57;2.37;;;11.60;67.40;;;11.26;50.48;101508.44;5074910;28;20196;-73
2023/06/04 01:33:28;;;;;;;2.70;2.43;;;11.50;67.60;;;11.35;49.92;101504.84;5074535;28;20216;-73
2023/06/04 01:36:00;;;;;;;2.70;2.27;;;11.60;68.00;;;11.26;50.58;101505.75;5074567;28;20221;-73
2023/06/04 01:38:32;;;;;;;3.50;2.20;;;11.60;68.50;;;11.16;50.91;101507.63;5075324;28;20301;-73
2023/06/04 01:41:04;;;;;;;2.43;2.07;;;11.50;69.40;;;11.11;51.33;101512.53;5074719;28;20285;-73
2023/06/04 01:43:36;;;;;;;2.83;2.53;;;11.40;69.60;;;11.15;51.25;101513.97;5074254;28;20320;-73
2023/06/04 01:46:09;;;;;;;4.50;2.47;;;11.70;70.30;;;11.05;51.54;101514.00;5074891;28;20190;-73
2023/06/04 01:48:41;;;;;;;3.57;2.00;;;11.30;70.50;;;11.21;50.95;101516.03;5074403;28;20189;-73
2023/06/04 01:51:13;;;;;;;4.13;2.60;;;11.50;70.20;;;11.00;51.86;101521.59;5074263;28;20296;-73
2023/06/04 01:53:45;;;;;;;3.60;2.70;;;11.40;70.70;;;10.95;52.13;101517.66;5073618;28;20546;-73
2023/06/04 01:56:17;;;;;;;4.03;2.40;;;11.40;72.40;;;11.01;51.62;101514.41;5073607;28;20251;-74
2023/06/04 01:58:49;;;;;;;6.30;2.50;;;11.30;72.40;;;10.88;52.08;101512.03;5074133;28;20185;-73
2023/06/04 02:01:22;;;;;;;4.17;2.30;;;11.30;72.20;;;10.87;52.50;101514.84;5074034;28;20239;-73
2023/06/04 02:03:54;;;;;;;3.83;2.20;;;11.30;72.20;;;10.90;52.26;101515.41;5074005;28;20247;-73
2023/06/04 02:06:29;;;;;;;5.07;2.60;;;11.30;74.50;;;10.82;52.56;101517.13;5073757;28;20205;-74
2023/06/04 02:09:03;;;;;;;4.90;2.67;;;11.40;73.80;;;10.66;53.06;101512.34;5073942;28;20280;-73
2023/06/04 02:11:34;;;;;;;4.40;2.43;;;11.00;75.20;;;10.76;52.66;101507.81;5074271;28;20232;-73
2023/06/04 02:14:06;;;;;;;3.80;2.40;;;11.20;75.30;;;10.69;53.25;101512.03;5073879;28;20185;-73
2023/06/04 02:16:40;;;;;;;3.80;2.57;;;11.10;76.30;;;10.67;52.80;101504.19;5073546;28;20235;-73
2023/06/04 02:19:12;;;;;;;4.90;2.30;;;11.20;76.40;;;10.67;52.84;101512.22;5073798;28;20194;-73
2023/06/04 02:21:44;;;;;;;3.67;2.50;;;11.20;76.80;;;10.65;53.03;101511.50;5074115;28;20244;-73
2023/06/04 02:24:16;;;;;;;4.70;2.23;;;11.30;76.20;;;10.48;53.84;101504.16;5073619;28;20217;-73
2023/06/04 02:26:48;;;;;;;4.30;2.40;;;11.00;76.90;;;10.59;53.56;101506.72;5073606;28;20320;-73
2023/06/04 02:29:20;;;;;;;3.20;2.17;;;11.00;77.40;;;10.46;53.76;101506.16;5073598;28;20348;-73
2023/06/04 02:31:53;;;;;;;4.00;2.47;;;10.90;77.80;;;10.42;53.90;101499.38;5073569;28;20264;-73
2023/06/04 02:34:26;;;;;;;3.13;2.37;;;11.00;78.40;;;10.36;54.46;101499.94;5073210;28;20596;-74
2023/06/04 02:36:58;;;;;;;3.40;2.30;;;10.90;78.30;;;10.47;54.31;101505.19;5073532;28;20190;-73
2023/06/04 02:39:30;;;;;;;2.47;2.27;;;11.00;79.40;;;10.24;54.97;101501.06;5073435;28;20194;-73
2023/06/04 02:42:02;;;;;;;4.23;2.70;;;10.60;78.90;;;10.33;54.32;101510.94;5073352;28;20321;-73
2023/06/04 02:44:33;;;;;;;4.60;2.63;;;10.90;79.10;;;10.19;54.72;101508.66;5073217;28;20308;-73
2023/06/04 02:47:08;;;;;;;7.47;2.97;;;10.80;78.80;;;10.22;54.75;101508.38;5073345;28;20186;-73
2023/06/04 02:49:40;;;;;;;4.10;3.17;;;10.60;79.60;;;10.21;55.03;101516.53;5073001;28;20660;-73
2023/06/04 02:52:12;;;;;;;3.67;2.77;;;10.70;79.90;;;10.16;55.19;101520.50;5073240;28;20282;-73
2023/06/04 02:54:44;;;;;;;4.77;2.70;;;10.60;80.00;;;10.26;54.64;101520.50;5073218;28;20260;-73
2023/06/04 02:57:15;;;;;;;3.17;2.87;;;10.90;79.60;;;10.22;54.54;101524.44;5073225;28;20189;-73
2023/06/04 02:59:47;;;;;;;3.27;2.90;;;10.80;79.60;;;10.24;54.79;101525.13;5072900;28;20630;-74
2023/06/04 03:02:20;;;;;;;5.00;2.50;;;10.80;79.90;;;9.98;55.77;101537.31;5073130;28;20259;-73
2023/06/04 03:04:54;;;;;;;3.70;2.80;;;10.40;81.80;;;9.97;55.39;101535.63;5072854;28;20210;-73
2023/06/04 03:07:26;;;;;;;3.60;2.50;;;10.50;81.90;;;9.99;55.68;101529.19;5072864;28;20251;-73
2023/06/04 03:09:58;;;;;;;2.50;2.30;;;10.40;83.20;;;9.90;56.17;101535.31;5073402;28;20194;-73
2023/06/04 03:12:30;;;;;;;3.50;2.50;;;10.40;82.80;;;9.81;56.43;101536.16;5072997;28;20225;-73
2023/06/04 03:15:03;;;;;;;4.50;2.30;;;10.20;83.10;;;9.93;56.37;101534.22;5073145;28;20281;-73
2023/06/04 03:17:36;;;;;;;4.90;2.83;;;10.40;83.40;;;9.93;56.50;101540.41;5072746;28;20243;-73
2023/06/04 03:20:10;;;;;;;3.37;2.47;;;10.50;83.50;;;9.82;56.70;101539.69;5073091;28;20189;-73
2023/06/04 03:22:42;;;;;;;4.27;2.57;;;10.20;83.80;;;9.81;56.82;101537.97;5072986;28;20324;-73
2023/06/04 03:25:14;;;;;;;4.20;2.53;;;10.40;83.40;;;9.74;57.08;101540.34;5072677;28;20783;-73
2023/06/04 03:27:46;;;;;;;4.70;2.50;;;10.30;83.90;;;9.64;57.64;101544.81;5073287;28;20189;-73
2023/06/04 03:30:18;;;;;;;4.73;2.43;;;10.10;84.10;;;9.68;57.35;101540.91;5072687;28;20752;-73
2023/06/04 03:32:51;;;;;;;6.30;2.50;;;10.10;84.20;;;9.76;57.80;101537.56;5072853;28;20317;-73
2023/06/04 03:35:23;;;;;;;4.00;2.43;;;10.20;84.40;;;9.67;58.61;101540.03;5072667;28;20196;-73
2023/06/04 03:37:55;;;;;;;5.37;2.70;;;10.30;84.80;;;9.67;59.19;101534.69;5072897;28;20248;-73
2023/06/04 03:40:27;;;;;;;3.13;2.10;;;10.20;85.40;;;9.62;59.21;101538.78;5072919;28;20224;-73
2023/06/04 03:43:00;;;;;;;5.27;2.20;;;10.20;85.80;;;9.61;60.19;101537.06;5072700;28;20777;-73
2023/06/04 03:45:31;;;;;;;9.07;2.70;;;10.20;86.80;;;9.69;59.36;101542.59;5072469;28;20205;-73
2023/06/04 03:48:05;;;;;;;4.03;2.47;;;10.30;86.00;;;9.62;59.78;101536.91;5072845;28;20232;-73
2023/06/04 03:50:37;;;;;;;4.63;2.23;;;10.30;86.60;;;9.66;59.81;101541.03;5072445;28;20554;-73
2023/06/04 03:53:09;;;;;;;4.93;2.60;;;10.10;85.90;;;9.70;59.31;101538.91;5072881;28;20233;-73
2023/06/04 03:55:41;;;;;;;3.40;2.20;;;10.20;86.40;;;9.72;60.14;101542.31;5072727;28;20269;-73
2023/06/04 03:58:14;;;;;;;3.57;2.10;;;10.40;86.80;;;9.68;59.67;101536.41;5072733;28;20201;-73
2023/06/04 04:00:46;;;;;;;3.00;2.10;;;10.20;86.00;;;9.57;59.88;101538.31;5072380;28;20587;-73
2023/06/04 04:03:19;;;;;;;2.77;2.03;;;10.20;85.40;;;9.65;59.64;101535.81;5072597;28;20311;-73
2023/06/04 04:05:51;;;;;;;4.43;2.27;;;10.30;86.00;;;9.75;59.21;101543.88;5072539;28;20209;-73
2023/06/04 04:08:23;;;;;;;4.90;2.10;;;10.40;84.40;;;9.71;59.70;101531.75;5072587;28;20186;-73
2023/06/04 04:10:55;;;;;;;3.80;2.40;;;10.30;85.00;;;9.67;59.85;101540.03;5072495;28;20197;-73
2023/06/04 04:13:27;;;;;;;4.30;2.37;;;10.10;84.60;;;9.69;59.90;101543.41;5072441;28;20316;-73
2023/06/04 04:15:59;;;;;;;2.73;2.13;;;10.30;85.50;;;9.66;60.52;101538.34;5072224;28;20209;-73
2023/06/04 04:18:35;;;;;;;2.60;2.13;;;10.20;85.40;;;9.61;60.88;101540.59;5074118;28;20276;-73
2023/06/04 04:21:07;;;;;;;3.33;2.17;;;10.10;85.90;;;9.67;60.50;101539.19;5075711;28;20645;-73
2023/06/04 04:23:40;;;;;;;3.03;2.63;;;10.20;85.90;;;9.67;60.51;101537.38;5076161;28;20304;-73
2023/06/04 04:26:16;;;;;;;3.37;2.13;;;10.30;85.50;;;9.77;60.73;101537.41;5075939;28;20210;-73
2023/06/04 04:28:49;;;;;;;3.67;2.50;;;10.40;85.70;;;9.81;60.59;101532.63;5075939;28;20185;-73
2023/06/04 04:31:22;;;;;;;3.40;2.40;;;10.50;85.50;;;9.78;60.39;101551.63;5075796;28;20189;-73
2023/06/04 04:33:57;;;;;;;3.13;2.10;;;10.30;85.10;;;9.79;61.08;101539.94;5075872;28;20190;-73
2023/06/04 04:36:29;;;;;;;2.47;2.00;;;10.40;85.70;;;9.80;60.77;101538.94;5076343;28;20200;-73
2023/06/04 04:39:01;;;;;;;3.77;2.07;;;10.40;85.70;;;9.82;61.02;101542.34;5075515;28;20189;-73
2023/06/04 04:41:33;;;;;;;4.20;2.13;;;10.30;85.60;;;9.80;61.42;101544.28;5075713;28;20189;-73
2023/06/04 04:44:07;;;;;;;2.43;2.10;;;10.30;85.50;;;9.79;61.66;101542.63;5075912;28;20284;-73
2023/06/04 04:46:39;;;;;;;2.57;2.37;;;10.30;86.00;;;9.80;61.46;101545.16;5075734;28;20402;-73
2023/06/04 04:49:12;;;;;;;3.97;2.20;;;10.30;86.70;;;9.82;62.02;101542.34;5075781;28;20284;-73
2023/06/04 04:51:44;;;;;;;4.03;2.30;;;10.30;86.80;;;9.81;62.14;101548.66;5075406;28;20727;-73
2023/06/04 04:54:16;;;;;;;3.17;2.03;;;10.40;87.30;;;9.78;62.39;101549.81;5075684;28;20277;-73
2023/06/04 04:56:48;;;;;;;2.10;1.90;;;10.30;86.90;;;9.71;62.54;101545.97;5075328;28;20552;-73
2023/06/04 04:59:35;;;;;;;2.87;2.17;;;10.40;87.40;;;9.71;62.34;101550.47;5075479;28;20247;-73
2023/06/04 05:02:07;;;;;;;3.13;2.00;;;10.40;87.90;;;9.76;61.85;101553.59;5075395;28;20311;-73
2023/06/04 05:04:41;;;;;;;4.43;2.17;;;10.30;87.10;;;9.80;61.72;101550.50;5075366;28;20256;-73
2023/06/04 05:07:13;;;;;;;2.20;2.00;;;10.50;87.00;;;9.84;62.18;101557.28;5075239;28;20213;-73
2023/06/04 05:09:45;;;;;;;2.97;2.20;;;10.50;87.30;;;9.87;61.80;101553.47;5075281;28;20198;-73
2023/06/04 05:12:17;;;;;;;2.57;2.30;;;10.50;87.10;;;9.82;62.54;101547.69;5075126;28;20256;-73
2023/06/04 05:14:49;;;;;;;2.50;2.00;;;10.40;87.60;;;9.90;62.39;101550.53;5075130;28;20229;-74
2023/06/04 05:17:29;;;;;;;2.07;1.80;;;10.60;87.70;;;9.89;62.10;101560.41;5074965;28;20271;-74
2023/06/04 05:20:04;;;;;;;4.20;2.20;;;10.60;87.30;;;9.90;62.10;101561.22;5075102;28;20185;-74
2023/06/04 05:22:36;;;;;;;3.50;2.17;;;10.60;87.40;;;9.98;61.21;101561.41;5074653;28;20274;-73
2023/06/04 05:25:10;;;;;;;2.43;2.20;;;10.60;86.90;;;9.94;62.39;101559.97;5074610;28;20196;-73
2023/06/04 05:27:42;;;;;;;3.30;2.20;;;10.60;87.70;;;10.02;62.48;101554.78;5074622;28;20653;-73
2023/06/04 05:30:17;;;;;;;3.77;2.30;;;10.70;87.80;;;10.06;62.57;101566.91;5074707;28;20190;-73
2023/06/04 05:32:50;;;;;;;5.67;2.53;;;10.70;88.00;;;10.08;62.83;101570.28;5074682;28;20284;-73
2023/06/04 05:35:23;;;;;;;2.57;2.20;;;10.70;88.40;;;10.14;62.08;101564.41;5074395;28;20539;-73
2023/06/04 05:37:55;;;;;;;3.20;2.03;;;10.90;88.10;;;10.22;62.38;101571.75;5074810;28;20240;-73
2023/06/04 05:40:27;;;;;;;2.83;2.17;;;10.80;88.30;;;10.25;62.27;101569.66;5074388;28;20193;-73
2023/06/04 05:42:59;;;;;;;2.37;2.10;;;10.80;87.90;;;10.31;61.63;101566.44;5074515;28;20778;-73
2023/06/04 05:45:31;;;;;;;2.23;2.03;;;10.90;87.40;;;10.35;61.52;101562.50;5074587;28;20193;-73
2023/06/04 05:48:03;;;;;;;5.27;2.40;;;10.90;87.30;;;10.39;62.14;101569.25;5074579;28;20334;-73
2023/06/04 05:50:37;;;;;;;3.00;2.10;;;11.00;87.80;;;10.42;60.78;101573.47;5074526;28;20193;-73
2023/06/04 05:53:09;;;;;;;7.57;2.30;;;11.00;86.40;;;10.45;61.35;101563.34;5074946;28;20773;-73
2023/06/04 05:55:41;;;;;;;5.10;2.40;;;11.20;87.00;;;10.51;61.23;101567.31;5074356;28;20243;-73
2023/06/04 05:58:13;;;;;;;3.20;2.20;;;11.10;86.70;;;10.57;62.14;101567.59;5074445;28;20280;-73
2023/06/04 06:00:44;;;;;;;3.13;2.47;;;11.30;87.40;;;10.62;61.19;101570.69;5074294;28;20287;-73
2023/06/04 06:03:17;;;;;;;3.13;2.50;;;11.40;86.80;;;10.66;60.83;101574.78;5074187;28;20316;-73
2023/06/04 06:05:50;;;;;;;3.77;2.30;;;11.50;86.30;;;10.75;60.50;101569.56;5074130;28;20300;-74
2023/06/04 06:08:22;;;;;;;2.70;2.23;;;11.50;86.00;;;10.85;60.13;101576.63;5074189;28;20196;-75
2023/06/04 06:10:54;;;;;;;2.60;2.30;;;11.60;85.10;;;10.90;59.73;101577.03;5074399;28;20217;-73
2023/06/04 06:13:26;;;;;;;3.73;2.40;;;11.60;84.70;;;10.95;60.89;101576.63;5074074;28;20320;-73
2023/06/04 06:16:00;;;;;;;3.27;2.20;;;11.60;85.90;;;11.08;61.45;101577.16;5073824;28;20240;-73
2023/06/04 06:18:32;;;;;;;6.00;2.17;;;11.70;87.10;;;11.10;60.85;101580.53;5073984;28;20185;-74
2023/06/04 06:21:05;;;;;;;2.90;2.53;;;11.80;87.80;;;11.15;61.98;101578.28;5073995;28;20193;-74
2023/06/04 06:23:37;;;;;;;3.07;2.07;;;12.00;88.40;;;11.24;61.11;101588.13;5073509;28;20838;-74
2023/06/04 06:26:09;;;;;;;2.67;2.20;;;12.00;87.80;;;11.30;62.47;101584.88;5073442;28;20217;-73
2023/06/04 06:28:41;;;;;;;2.97;2.47;;;12.00;88.90;;;11.37;61.46;101577.94;5073684;28;20682;-74
2023/06/04 06:31:13;;;;;;;3.67;2.30;;;12.20;88.10;;;11.45;61.49;101586.09;5073428;28;20597;-74
2023/06/04 06:33:45;;;;;;;3.23;2.40;;;12.30;87.50;;;11.50;61.91;101578.50;5073874;28;20197;-75
2023/06/04 06:36:18;;;;;;;3.47;2.30;;;12.30;87.80;;;11.58;59.44;101583.94;5074490;28;20284;-75
2023/06/04 06:38:52;;;;;;;3.70;2.30;;;12.40;86.00;;;11.66;60.46;101581.38;5073600;28;20653;-75
2023/06/04 06:41:24;;;;;;;2.80;2.30;;;12.50;86.50;;;11.80;58.92;101588.16;5073114;28;20186;-73
2023/06/04 06:43:56;;;;;;;2.97;2.20;;;12.60;84.50;;;11.86;58.51;101589.38;5073718;28;20239;-75
2023/06/04 06:46:27;;;;;;;6.23;2.40;;;12.60;84.50;;;11.92;58.55;101588.78;5073511;28;20710;-75
2023/06/04 06:48:59;;;;;;;4.83;2.30;;;12.60;84.50;;;12.04;57.29;101598.34;5073302;28;20665;-74
2023/06/04 06:51:33;;;;;;;2.63;2.33;;;12.70;84.20;;;12.22;56.43;101596.56;5073577;28;20251;-73
2023/06/04 06:54:04;;;;;;;3.20;2.03;;;12.90;82.00;;;12.22;59.24;101601.94;5073994;28;20277;-73
2023/06/04 06:56:37;;;;;;;3.83;2.10;;;13.00;84.00;;;12.31;57.86;101601.00;5073477;28;20276;-73
2023/06/04 06:59:10;;;;;;;5.20;2.20;;;13.00;83.10;;;12.44;56.95;101601.50;5073078;28;20686;-73
2023/06/04 07:01:43;;;;;;;4.00;1.93;;;13.20;81.50;;;12.42;58.89;101598.13;5073315;28;20260;-73
2023/06/04 07:04:15;;;;;;;2.50;1.70;;;13.10;83.40;;;12.49;58.13;101603.72;5073608;28;20280;-74
2023/06/04 07:06:49;;;;;;;3.70;2.10;;;13.30;83.50;;;12.55;56.80;101603.97;5073599;28;20245;-74
2023/06/04 07:09:23;;;;;;;4.97;2.73;;;13.40;82.10;;;12.68;56.03;101600.91;5073053;28;20638;-74
2023/06/04 07:11:55;;;;;;;6.87;2.43;;;13.50;81.20;;;12.81;56.12;101603.22;5072944;28;20312;-74
2023/06/04 07:14:28;;;;;;;3.43;2.20;;;13.60;79.70;;;12.89;57.30;101608.66;5073098;28;20190;-73
2023/06/04 07:17:00;;;;;;;2.40;2.20;;;13.70;81.40;;;13.00;55.59;101597.66;5072972;28;20213;-67
2023/06/04 07:19:32;;;;;;;3.47;2.37;;;13.80;80.50;;;13.04;57.29;101599.91;5073356;28;20190;-74
2023/06/04 07:22:06;;;;;;;2.57;1.93;;;13.80;81.60;;;13.12;58.27;101604.50;5073130;28;20221;-74
2023/06/04 07:24:38;;;;;;;5.73;2.50;;;13.90;82.70;;;13.34;55.15;101595.09;5073151;28;20190;-74
2023/06/04 07:27:16;;;;;;;3.00;2.00;;;14.10;79.80;;;13.42;56.95;101601.41;5072829;28;20689;-75
2023/06/04 07:29:48;;;;;;;5.90;2.33;;;14.20;80.80;;;13.69;53.19;101595.84;5073282;28;20193;-75
2023/06/04 07:32:20;;;;;;;3.97;2.03;;;14.40;77.50;;;13.71;52.35;101593.84;5072822;28;20771;-74
2023/06/04 07:34:52;;;;;;;3.70;2.47;;;14.40;75.90;;;13.76;52.23;101589.81;5073221;28;20193;-75
2023/06/04 07:37:25;;;;;;;4.37;2.57;;;14.50;75.70;;;13.83;53.10;101591.72;5072868;28;20551;-75
2023/06/04 07:39:57;;;;;;;3.70;2.40;;;14.50;76.20;;;14.04;51.25;101588.63;5073155;28;20280;-75
2023/06/04 07:42:29;;;;;;;3.70;2.43;;;14.70;74.50;;;14.04;52.66;101588.63;5072913;28;20221;-74
2023/06/04 07:45:01;;;;;;;5.07;2.33;;;14.80;75.30;;;14.13;51.03;101584.94;5073101;28;20289;-74
2023/06/04 07:47:33;;;;;;;2.83;2.20;;;14.80;75.00;;;14.28;49.44;101590.56;5072963;28;20309;-74
2023/06/04 07:50:06;;;;;;;2.97;2.47;;;14.90;71.30;;;14.39;51.34;101596.50;5072680;28;20642;-74
2023/06/04 07:52:39;;;;;;;3.10;2.20;;;15.00;74.20;;;14.48;52.37;101598.22;5073250;28;20257;-74
2023/06/04 07:55:12;;;;;;;2.70;2.40;;;15.10;76.00;;;14.55;52.75;101601.94;5076726;28;20190;-75
2023/06/04 07:57:45;;;;;;;3.23;1.97;;;15.30;75.90;;;14.70;50.93;101597.56;5076684;28;20193;-74
2023/06/04 08:00:19;;;;;;;2.67;2.10;;;15.40;73.30;;;14.91;50.63;101601.63;5076668;28;20722;-74
2023/06/04 08:02:52;;;;;;;4.13;2.23;;;15.50;74.00;;;14.93;49.16;101602.34;5076557;28;20311;-74
2023/06/04 08:05:24;;;;;;;2.20;2.00;;;15.60;70.40;;;15.22;44.74;101597.25;5076645;28;20212;-74
2023/06/04 08:07:57;;;;;;;2.80;1.90;;;15.80;65.50;;;15.19;48.26;101597.59;5076551;28;20241;-74
2023/06/04 08:10:29;;;;;;;2.53;2.10;;;15.90;68.90;;;15.36;45.97;101601.13;5076588;28;20200;-76
2023/06/04 08:13:01;;;;;;;4.43;2.00;;;16.00;66.50;;;15.46;44.68;101599.94;5076440;28;20317;-74
2023/06/04 08:15:35;;;;;;;4.63;2.00;;;16.10;66.20;;;15.44;47.83;101601.13;5076237;28;20356;-74
2023/06/04 08:18:07;;;;;;;3.77;1.87;;;16.10;68.10;;;15.81;43.38;101590.59;5076488;28;20214;-74
2023/06/04 08:20:39;;;;;;;2.53;1.80;;;16.40;63.40;;;15.93;43.95;101596.47;5076658;28;20189;-74
2023/06/04 08:23:12;;;;;;;3.03;2.00;;;16.60;63.20;;;15.92;47.45;101601.03;5076272;28;20226;-74
2023/06/04 08:25:44;;;;;;;4.93;2.10;;;16.60;67.90;;;16.13;43.91;101611.25;5076281;28;20193;-75
2023/06/04 08:28:19;;;;;;;3.80;2.00;;;16.70;64.40;;;16.40;43.13;101608.09;5076213;28;20296;-75
2023/06/04 08:30:50;;;;;;;2.93;2.13;;;17.00;62.30;;;16.40;43.75;101610.78;5076157;28;20247;-75
2023/06/04 08:33:22;;;;;;;2.13;1.80;;;17.10;62.60;;;16.53;44.51;101613.75;5076110;28;20229;-75
2023/06/04 08:35:54;;;;;;;2.60;2.10;;;17.20;63.00;;;16.54;42.28;101604.59;5076101;28;20197;-75
2023/06/04 08:38:27;;;;;;;2.47;1.87;;;17.20;59.50;;;16.60;39.71;101605.81;5076119;28;20273;-75
2023/06/04 08:41:10;;;;;;;2.97;2.10;;;17.20;57.90;;;17.12;38.38;101606.75;5075713;28;20189;-74
2023/06/04 08:43:44;;;;;;;2.00;1.80;;;17.60;56.60;;;17.14;41.35;101615.56;5075919;28;20281;-74
2023/06/04 08:46:18;;;;;;;2.33;1.60;;;17.70;58.60;;;17.09;41.21;101611.69;5075908;28;20285;-74
2023/06/04 08:48:51;;;;;;;2.80;1.70;;;17.70;58.40;;;17.18;38.63;101610.63;5075424;28;20217;-75
2023/06/04 08:51:24;;;;;;;4.03;1.90;;;17.70;56.60;;;17.29;38.29;101612.03;5075958;28;20193;-74
2023/06/04 08:53:59;;;;;;;2.77;1.77;;;17.80;55.90;;;17.30;39.83;101616.41;5075433;28;20281;-74
2023/06/04 08:56:32;;;;;;;3.13;1.80;;;17.90;57.00;;;17.40;40.18;101606.16;5075678;28;20232;-75
2023/06/04 08:59:07;;;;;;;2.30;1.70;;;18.00;57.70;;;17.58;38.99;101604.84;5075679;28;20186;-75
2023/06/04 09:01:41;;;;;;;2.27;2.00;;;18.20;56.60;;;17.71;38.67;101602.31;5075272;28;20313;-75
2023/06/04 09:04:14;;;;;;;3.20;1.63;;;18.30;55.10;;;17.96;35.35;101602.06;5075031;28;20193;-75
2023/06/04 09:06:47;;;;;;;3.37;1.57;;;18.40;52.00;;;17.92;37.95;101603.44;5075546;28;20198;-75
2023/06/04 09:09:24;;;;;;;4.27;1.73;;;18.40;53.20;;;18.07;36.56;101612.44;5075459;28;20242;-75
2023/06/04 09:11:58;;;;;;;3.10;2.03;;;18.60;53.00;;;18.27;34.66;101602.69;5075331;28;20229;-75
2023/06/04 09:14:30;;;;;;;5.73;1.80;;;18.80;50.60;;;18.24;36.82;101608.47;5075319;28;20277;-75
2023/06/04 09:17:02;;;;;;;3.77;1.77;;;18.80;52.40;;;18.40;32.62;101610.97;5075137;28;20322;-75
2023/06/04 09:19:34;;;;;;;2.40;1.70;;;18.90;48.30;;;18.43;33.29;101607.88;5075199;28;20228;-75
2023/06/04 09:22:05;;;;;;;1.80;1.40;;;19.00;48.30;;;18.56;32.26;101608.06;5075203;28;20284;-75
2023/06/04 09:24:47;;;;;;;1.97;1.47;;;19.10;47.40;;;18.63;33.75;101611.69;5075183;28;20277;-75
2023/06/04 09:27:22;;;;;;;1.97;1.60;;;19.20;48.80;;;18.70;33.73;101612.59;5075040;28;20190;-76
2023/06/04 09:29:56;;;;;;;3.13;1.70;;;19.30;48.80;;;18.78;33.78;101610.78;5075029;28;20189;-75
2023/06/04 09:32:29;;;;;;;3.37;1.60;;;19.30;48.30;;;18.95;32.91;101612.22;5074965;28;20275;-75
2023/06/04 09:35:12;;;;;;;2.90;1.90;;;19.50;48.30;;;19.07;32.38;101610.69;5074950;28;20193;-75
2023/06/04 09:37:55;;;;;;;1.93;1.60;;;19.60;46.80;;;19.16;31.12;101609.50;5074578;28;20193;-75
2023/06/04 09:40:38;;;;;;;2.63;1.70;;;19.60;46.20;;;19.24;33.02;101609.38;5074791;28;20192;-75
2023/06/04 09:43:11;;;;;;;3.33;1.63;;;19.80;47.50;;;19.34;31.90;101609.03;5074608;28;20721;-76
2023/06/04 09:45:43;;;;;;;1.83;1.50;;;19.80;47.00;;;19.44;32.38;101606.84;5074716;28;20194;-76
2023/06/04 09:48:25;;;;;;;4.33;2.10;;;19.90;46.50;;;19.40;31.71;101611.81;5074525;28;20228;-76
2023/06/04 09:51:06;;;;;;;2.90;1.73;;;19.80;45.90;;;19.46;33.09;101604.75;5074904;28;20196;-75
2023/06/04 09:53:40;;;;;;;1.77;1.47;;;19.90;46.70;;;19.56;32.33;101600.66;5074389;28;20237;-76
2023/06/04 09:56:14;;;;;;;2.73;1.70;;;20.00;47.70;;;19.71;31.44;101598.69;5074446;28;20189;-76
2023/06/04 09:58:49;;;;;;;2.47;1.60;;;20.10;45.90;;;19.76;35.41;101599.97;5074647;28;20195;-76
2023/06/04 10:01:23;;;;;;;2.73;1.47;;;20.20;48.70;;;19.84;36.00;101602.53;5074317;28;20193;-75
2023/06/04 10:03:57;;;;;;;2.83;1.70;;;20.30;50.90;;;19.97;34.74;101602.59;5074347;28;20193;-77
2023/06/04 10:06:33;;;;;;;5.43;1.80;;;20.40;48.80;;;20.11;34.15;101596.19;5074284;28;20196;-77
2023/06/04 10:09:10;;;;;;;5.00;2.00;;;20.60;48.40;;;20.32;31.91;101596.09;5074245;28;20237;-77
2023/06/04 10:11:49;;;;;;;2.30;1.60;;;20.80;46.00;;;20.45;31.35;101588.00;5074167;28;20225;-75
2023/06/04 10:14:28;;;;;;;3.33;1.60;;;20.90;45.20;;;20.61;30.73;101593.09;5074178;28;20224;-76
2023/06/04 10:17:04;;;;;;;2.00;1.77;;;21.00;44.40;;;20.70;31.75;101600.00;5072957;28;20270;-77
2023/06/04 10:19:39;;;;;;;3.03;1.60;;;21.10;46.20;;;20.75;30.33;101597.47;5074102;28;20288;-77
2023/06/04 10:22:11;;;;;;;2.63;1.70;;;21.10;44.60;;;20.84;31.28;101589.13;5073873;28;20274;-77
2023/06/04 10:24:44;;;;;;;2.13;1.80;;;21.30;45.00;;;20.92;31.43;101594.41;5073944;28;20225;-76
2023/06/04 10:27:20;;;;;;;2.30;1.40;;;21.30;44.80;;;21.01;33.53;101602.16;5073876;28;20691;-76
2023/06/04 10:29:53;;;;;;;3.30;1.77;;;21.40;47.00;;;21.06;30.23;101598.81;5073431;28;20204;-76
2023/06/04 10:32:27;;;;;;;3.23;1.73;;;21.40;44.20;;;21.18;30.27;101587.09;5073669;28;20316;-76
2023/06/04 10:35:04;;;;;;;1.80;1.47;;;21.60;43.20;;;21.36;30.12;101597.38;5073414;28;20235;-76
2023/06/04 10:37:36;;;;;;;4.10;1.40;;;21.70;43.40;;;21.47;29.36;101591.28;5073672;28;20193;-76
2023/06/04 10:40:10;;;;;;;3.27;1.57;;;21.90;41.80;;;21.60;27.14;101585.00;5073603;28;20225;-76